Turmalina, Brazil
Current Conditions -  °F | °C
As of 7:00 AM on Thursday 23 Oct 2014 (Local Time) from SBMK Reporting Station
Broken Clouds Broken Clouds  
Wind Chill: 68°   Ceiling: 10000
Heat Index: 68°   Visibility: 6mi
Dew Point: 57°   Wind: 8mph
Humidity: 68%   Direction: 70°ENE
Pressure: 30.12"   Gusts: NA
Location:  17.29°S, 42.73°W
Report Text: SBMK 230900Z 07007KT 9999 FEW030 BKN100 20/14 Q1020
Loading
Personal Weather Stations






























Interactive Weather Map
Tropical Storm Tracking
New forecast layout! Learn more

10-Day Weather Forecast

Advertisements
Track Severe Weather on mobile